Historyczne dane pomiarowe

Dodano dane terminowe – wersja testowa.

Dane z okresu 1951-2019

Wersja bazy: 1.34 [2019-03-16, lista zmian], aktualizacja planowana na 2019-04-15

Dane meteo z obszaru Polski uzyskane na podstawie danych udostępnionych przez Instytut Meteorologii i Gospodarki Wodnej – Państwowy Instytut Badawczy.

 

Wybierz Datę:    

       

TemperaturaWilgotnośćZachmurzenieWiatrCiśnienieWidzialnośćZjawiska
 Data    tng td wb rh cc ccl cl cm ch dir g1 g2 mslp ppp      
1994-07-10 00:00:00 14.0--- 13.5 13.797wxwxwx2wx--1019.8 979.0 15.1---wxw1
1994-07-10 01:00:00 13.8--- 13.3 13.597wxwxwx3wx--1020.0 979.2----wx
1994-07-10 02:00:00 14.1--- 13.4 13.796wxwxwx3wx--1020.3 979.5----wx
1994-07-10 03:00:00 14.1--- 12.7 13.392wxwxwx3wx--1020.3 979.5----wx
1994-07-10 04:00:00 13.8--- 13.1 13.496wxwxwx3wx--1021.2 980.3----wx
1994-07-10 05:00:00 13.7--- 12.7 13.194wxwxwx3wx--1021.3 980.4----wx
1994-07-10 06:00:00 13.8--- 12.3 12.990wxwxwx3wx--1021.9 981.0 0.0---wx
1994-07-10 07:00:00 13.8--- 12.3 12.990wxwxwx3wx--1022.5 981.6----wx
1994-07-10 08:00:00 14.0--- 12.3 13.089wxwxwx4wx--1022.6 981.7----wx
1994-07-10 09:00:00 15.0--- 12.6 13.686wxwxwx3wx--1022.9 982.1----wx
1994-07-10 10:00:00 17.0--- 13.0 14.677wxwxwx2wx--1022.6 982.1----wx
1994-07-10 11:00:00 18.4--- 13.5 15.473wxwxwx4wx--1022.4 982.1----wx
1994-07-10 12:00:00 19.5--- 13.1 15.666wxwxwx4wx--1022.3 982.2 0.0---wx
1994-07-10 13:00:00 20.4--- 13.9 16.466wxwxwx3wx--1022.0 982.0----wx
1994-07-10 14:00:00 19.8--- 14.1 16.370wxwxwx3wx--1022.3 982.2----wxw1
1994-07-10 15:00:00 18.8--- 15.6 16.882wxwxwx4wx--1022.3 982.1----wxw1
1994-07-10 16:00:00 18.8--- 15.8 16.983wxwxwx2wx--1022.4 982.2----wx
1994-07-10 17:00:00 18.6--- 15.7 16.883wxwxwx2wx--1022.6 982.3----wx
1994-07-10 18:00:00 18.0--- 15.8 16.687wxwxwx2wx--1022.8 982.4 1.5---wxw1
1994-07-10 19:00:00 16.8--- 15.5 16.092wxwxwx0wx--1023.4 982.9----wx
1994-07-10 20:00:00 16.6--- 15.6 16.094wxwxwx1wx--1024.1 983.5----wx
1994-07-10 21:00:00 15.8--- 14.8 15.294wxwxwx0wx--1024.8 984.1----wxw1
1994-07-10 22:00:00 15.2--- 14.2 14.694wxwxwx0wx--1024.8 984.0----wx
1994-07-10 23:00:00 14.0--- 13.3 13.696wxwxwx1wx--1025.4 984.4----wx

 

Źródłem pochodzenia danych jest Instytut Meteorologii i Gospodarki Wodnej – Państwowy Instytut Badawczy. Dane Instytutu Meteorologii i Gospodarki Wodnej – Państwowego Instytutu Badawczego zostały przetworzone.

Dane źródłowe można odnaleźć na stronie https://dane.imgw.pl